Time;durP1;ratioP1;P1;durP2;ratioP2;P2;SDS_P1;SDS_P2;PMS_P1;PMS_P2;Temp;Humidity;BMP_temperature;BMP_pressure;BME280_temperature;BME280_humidity;BME280_pressure;Samples;Min_cycle;Max_cycle;Signal;HPM_P1;HPM_P2
2024/02/24 00:00:20;;;;;;;1.70;0.60;;;;;;;17.30;55.62;99184.72;10449925;28;20281;-58
2024/02/24 00:05:25;;;;;;;1.48;0.60;;;;;;;17.29;55.84;99187.72;10449402;28;20032;-58
2024/02/24 00:10:25;;;;;;;1.15;0.40;;;;;;;17.29;56.47;99195.75;10449397;28;20765;-57
2024/02/24 00:15:25;;;;;;;1.00;0.50;;;;;;;17.27;56.02;99200.63;10449076;28;20040;-57
2024/02/24 00:20:26;;;;;;;1.07;0.40;;;;;;;17.27;55.49;99196.03;10449448;28;20052;-58
2024/02/24 00:25:26;;;;;;;0.80;0.40;;;;;;;17.27;55.38;99196.03;10456226;28;20286;-58
2024/02/24 00:30:26;;;;;;;0.85;0.35;;;;;;;17.26;56.02;99191.81;10457546;28;20855;-57
2024/02/24 00:35:30;;;;;;;1.07;0.67;;;;;;;17.27;55.92;99190.69;10457137;28;20053;-58
2024/02/24 00:40:30;;;;;;;1.65;0.40;;;;;;;17.26;55.45;99197.16;10457401;28;20327;-58
2024/02/24 00:45:30;;;;;;;0.67;0.40;;;;;;;17.27;56.00;99206.75;10457137;28;20041;-57
2024/02/24 00:50:31;;;;;;;2.17;0.60;;;;;;;17.30;55.94;99208.03;10456996;28;20624;-57
2024/02/24 00:55:31;;;;;;;1.10;0.40;;;;;;;17.30;56.06;99211.50;10456168;28;20299;-58
2024/02/24 01:00:31;;;;;;;1.83;0.63;;;;;;;17.31;55.55;99206.91;10456782;28;20271;-58
2024/02/24 01:05:32;;;;;;;2.00;0.77;;;;;;;17.30;55.62;99208.03;10456437;28;20032;-58
2024/02/24 01:10:32;;;;;;;1.40;0.70;;;;;;;17.33;54.69;99216.19;10456107;28;20438;-58
2024/02/24 01:15:32;;;;;;;0.87;0.50;;;;;;;17.33;54.98;99208.16;10455804;28;20708;-57
2024/02/24 01:20:33;;;;;;;0.85;0.50;;;;;;;17.34;55.55;99206.28;10454535;28;20283;-58
2024/02/24 01:25:33;;;;;;;1.02;0.40;;;;;;;17.36;54.92;99210.19;10455423;28;20369;-58
2024/02/24 01:30:33;;;;;;;1.43;0.70;;;;;;;17.37;54.97;99209.06;10440420;28;20903;-58
2024/02/24 01:35:35;;;;;;;1.15;0.43;;;;;;;17.37;54.98;99214.44;10453346;28;20291;-58
2024/02/24 01:40:35;;;;;;;0.95;0.40;;;;;;;17.37;55.02;99222.47;10454448;28;20047;-58
2024/02/24 01:45:35;;;;;;;1.50;0.60;;;;;;;17.39;54.72;99222.16;10454635;28;20090;-58
2024/02/24 01:50:40;;;;;;;1.83;0.63;;;;;;;17.46;54.54;99215.19;10454534;28;20333;-58
2024/02/24 01:55:40;;;;;;;0.88;0.52;;;;;;;17.47;54.76;99211.38;10454273;28;20029;-58
2024/02/24 02:00:41;;;;;;;1.35;0.60;;;;;;;17.49;55.29;99227.13;10454212;28;20451;-57
2024/02/24 02:05:41;;;;;;;0.97;0.50;;;;;;;17.47;54.61;99224.00;10454007;28;20032;-58
2024/02/24 02:10:46;;;;;;;0.88;0.65;;;;;;;17.45;54.67;99221.66;10453151;28;20291;-58
2024/02/24 02:15:48;;;;;;;1.98;0.45;;;;;;;17.45;54.79;99223.53;10452254;28;20032;-58
2024/02/24 02:20:50;;;;;;;0.93;0.82;;;;;;;17.41;54.80;99234.13;10451763;28;20037;-58
2024/02/24 02:25:50;;;;;;;0.85;0.40;;;;;;;17.43;53.81;99241.84;10453390;28;20444;-58
2024/02/24 02:30:51;;;;;;;0.40;0.30;;;;;;;17.42;53.77;99237.59;10452385;28;20021;-58
2024/02/24 02:35:51;;;;;;;1.10;0.90;;;;;;;17.44;54.78;99232.69;10453013;28;20287;-58
2024/02/24 02:40:52;;;;;;;2.10;0.40;;;;;;;17.40;54.79;99237.91;10452267;28;20021;-58
2024/02/24 02:45:52;;;;;;;1.10;0.35;;;;;;;17.40;55.15;99232.53;10451656;28;20263;-58
2024/02/24 02:50:52;;;;;;;0.98;0.50;;;;;;;17.41;54.03;99244.06;10451963;28;20029;-58
2024/02/24 02:55:53;;;;;;;2.40;0.57;;;;;;;17.41;53.89;99241.38;10451961;28;20035;-58
2024/02/24 03:00:53;;;;;;;0.70;0.40;;;;;;;17.38;53.94;99248.16;10451630;28;20282;-58
2024/02/24 03:05:53;;;;;;;0.83;0.50;;;;;;;17.39;53.73;99247.03;10451807;28;20021;-58
2024/02/24 03:10:54;;;;;;;1.10;0.50;;;;;;;17.41;53.86;99244.06;10451021;28;20299;-58
2024/02/24 03:15:54;;;;;;;0.98;0.40;;;;;;;17.39;54.64;99246.25;10450005;28;20024;-58
2024/02/24 03:20:55;;;;;;;0.63;0.38;;;;;;;17.40;54.24;99243.25;10450790;28;20028;-58
2024/02/24 03:25:55;;;;;;;0.57;0.20;;;;;;;17.40;55.07;99251.28;10450896;28;20017;-58
2024/02/24 03:30:55;;;;;;;0.73;0.40;;;;;;;17.38;54.19;99245.47;10450638;28;20071;-58
2024/02/24 03:35:56;;;;;;;0.88;0.47;;;;;;;17.40;55.12;99247.81;10450784;28;20287;-58
2024/02/24 03:40:56;;;;;;;0.97;0.40;;;;;;;17.37;54.79;99251.94;10450015;28;20079;-58
2024/02/24 03:45:56;;;;;;;2.70;1.33;;;;;;;17.41;54.51;99249.44;10450388;28;20514;-58
2024/02/24 03:50:58;;;;;;;1.03;0.47;;;;;;;17.41;54.55;99247.53;10449858;28;20024;-58
2024/02/24 03:55:58;;;;;;;0.77;0.43;;;;;;;17.40;54.73;99247.81;10448161;28;20283;-58
2024/02/24 04:00:58;;;;;;;0.60;0.30;;;;;;;17.41;54.49;99250.22;10449786;28;20029;-58
2024/02/24 04:05:59;;;;;;;1.08;0.35;;;;;;;17.41;53.32;99244.06;10449523;28;20032;-57
2024/02/24 04:11:00;;;;;;;1.10;0.35;;;;;;;17.40;53.73;99245.94;10447997;28;20053;-58
2024/02/24 04:16:01;;;;;;;0.75;0.30;;;;;;;17.38;54.35;99255.41;10449759;28;20083;-58
2024/02/24 04:21:01;;;;;;;0.52;0.30;;;;;;;17.42;55.10;99256.34;10449090;28;20036;-58
2024/02/24 04:26:01;;;;;;;0.57;0.30;;;;;;;17.41;54.48;99265.50;10449317;28;20521;-58
2024/02/24 04:31:01;;;;;;;0.80;0.40;;;;;;;17.40;55.11;99275.41;10448789;28;20301;-58
2024/02/24 04:36:03;;;;;;;0.33;0.30;;;;;;;17.41;53.20;99271.66;10449248;28;20812;-58
2024/02/24 04:41:04;;;;;;;0.93;0.30;;;;;;;17.41;54.56;99273.53;10447248;28;20283;-58
2024/02/24 04:46:04;;;;;;;1.27;0.50;;;;;;;17.41;54.47;99276.22;10449069;28;20021;-59
2024/02/24 04:51:05;;;;;;;0.70;0.50;;;;;;;17.39;54.17;99287.22;10447811;28;20055;-58
2024/02/24 04:56:05;;;;;;;0.70;0.40;;;;;;;17.40;53.63;99288.81;10447548;28;20297;-57
2024/02/24 05:01:06;;;;;;;0.70;0.30;;;;;;;17.41;54.62;99295.75;10446807;28;20468;-58
2024/02/24 05:06:08;;;;;;;1.17;0.50;;;;;;;17.38;54.78;99298.28;10444172;28;20033;-58
2024/02/24 05:11:08;;;;;;;1.27;0.40;;;;;;;17.38;54.24;99309.00;10450540;28;20374;-58
2024/02/24 05:16:09;;;;;;;0.57;0.30;;;;;;;17.36;54.67;99312.00;10450827;28;20036;-58
2024/02/24 05:21:19;;;;;;;0.40;0.20;;;;;;;17.38;54.19;99315.13;10452544;28;20263;-58
2024/02/24 05:26:26;;;;;;;0.38;0.20;;;;;;;17.36;53.43;99313.88;10451790;28;20284;-58
2024/02/24 05:31:27;;;;;;;1.20;0.40;;;;;;;17.39;54.50;99321.28;10453194;28;20025;-58
2024/02/24 05:36:27;;;;;;;0.83;0.30;;;;;;;17.36;54.23;99319.25;10453981;28;20021;-58
2024/02/24 05:41:27;;;;;;;0.63;0.30;;;;;;;17.35;54.71;99329.19;10453369;28;20279;-59
2024/02/24 05:46:28;;;;;;;0.63;0.37;;;;;;;17.35;53.75;99331.06;10454328;28;20786;-58
2024/02/24 05:51:28;;;;;;;0.73;0.40;;;;;;;17.33;54.72;99342.13;10453747;28;20271;-58
2024/02/24 05:56:28;;;;;;;0.87;0.40;;;;;;;17.37;53.51;99340.34;10454413;28;20958;-58
2024/02/24 06:01:29;;;;;;;0.33;0.33;;;;;;;17.34;54.84;99346.38;10451199;28;20267;-56
2024/02/24 06:06:29;;;;;;;0.83;0.33;;;;;;;17.31;54.36;99356.94;10449997;28;20819;-57
2024/02/24 06:11:29;;;;;;;1.30;0.43;;;;;;;17.37;55.21;99352.97;10449026;28;20382;-59
2024/02/24 06:16:29;;;;;;;8.43;0.87;;;;;;;17.46;54.45;99359.09;10452871;28;20284;-58
2024/02/24 06:21:30;;;;;;;4.83;0.67;;;;;;;17.48;55.09;99365.69;10453065;28;20272;-59
2024/02/24 06:26:30;;;;;;;6.38;0.80;;;;;;;17.51;56.14;99370.41;10453482;28;20263;-59
2024/02/24 06:31:31;;;;;;;5.23;0.70;;;;;;;17.53;55.94;99378.94;10452551;28;20024;-58
2024/02/24 06:36:31;;;;;;;6.53;0.60;;;;;;;17.56;55.58;99374.81;10450371;28;20812;-57
2024/02/24 06:41:31;;;;;;;2.00;0.50;;;;;;;17.53;55.54;99373.59;10447724;28;20286;-59
2024/02/24 06:46:32;;;;;;;4.93;0.60;;;;;;;17.54;56.84;99380.50;10451064;28;20027;-59
2024/02/24 06:51:32;;;;;;;4.70;1.53;;;;;;;17.52;55.49;99385.41;10451155;28;20021;-60
2024/02/24 06:56:32;;;;;;;6.55;0.73;;;;;;;17.54;55.08;99401.16;10448390;28;20298;-62
2024/02/24 07:01:33;;;;;;;4.43;1.00;;;;;;;17.51;55.81;99397.22;10448414;28;20082;-59
2024/02/24 07:06:33;;;;;;;10.00;1.42;;;;;;;17.50;56.57;99405.56;10451189;28;20283;-58
2024/02/24 07:11:33;;;;;;;7.05;0.90;;;;;;;17.48;56.62;99411.25;10449304;28;20128;-58
2024/02/24 07:16:34;;;;;;;5.22;0.68;;;;;;;17.47;57.86;99417.72;10444934;28;20033;-56
2024/02/24 07:21:34;;;;;;;6.20;1.23;;;;;;;17.39;57.64;99429.25;10449698;28;20021;-59
2024/02/24 07:26:42;;;;;;;6.97;1.00;;;;;;;17.32;56.61;99428.97;10450398;28;20298;-58
2024/02/24 07:31:42;;;;;;;11.32;1.40;;;;;;;17.42;57.42;99444.69;10447533;28;20686;-59
2024/02/24 07:36:43;;;;;;;4.82;1.20;;;;;;;17.44;57.66;99450.53;10449470;28;20064;-62
2024/02/24 07:41:45;;;;;;;8.87;1.40;;;;;;;17.45;57.20;99457.47;10445660;28;20226;-58
2024/02/24 07:46:45;;;;;;;14.30;1.50;;;;;;;17.44;58.30;99463.13;10447739;28;20263;-58
2024/02/24 07:51:45;;;;;;;8.57;1.83;;;;;;;17.45;58.45;99468.19;10448270;28;20761;-57
2024/02/24 07:56:46;;;;;;;7.30;1.25;;;;;;;17.40;58.53;99454.94;10448669;28;20294;-59
2024/02/24 08:01:46;;;;;;;9.60;2.10;;;;;;;17.39;57.93;99465.97;10448177;28;20082;-57
2024/02/24 08:06:46;;;;;;;9.77;2.00;;;;;;;17.35;58.42;99471.19;10430497;28;20750;-57
2024/02/24 08:11:47;;;;;;;20.53;3.27;;;;;;;17.32;58.42;99466.47;10440429;28;20308;-59
2024/02/24 08:16:47;;;;;;;20.13;2.57;;;;;;;17.33;58.73;99478.75;10444218;28;20419;-59
2024/02/24 08:21:47;;;;;;;14.03;2.07;;;;;;;17.32;57.96;99479.84;10448309;28;20283;-57
2024/02/24 08:26:48;;;;;;;14.97;2.73;;;;;;;17.34;59.47;99480.31;10447965;28;20023;-59
2024/02/24 08:31:49;;;;;;;10.70;2.60;;;;;;;17.35;59.46;99491.81;10447674;28;20021;-58
2024/02/24 08:36:51;;;;;;;14.35;2.28;;;;;;;17.32;59.07;99490.56;10446971;28;20063;-60
2024/02/24 08:41:51;;;;;;;8.20;1.65;;;;;;;17.34;58.51;99490.25;10446764;28;20029;-61
2024/02/24 08:46:51;;;;;;;8.87;2.17;;;;;;;17.33;59.82;99502.88;10454414;28;20021;-61
2024/02/24 08:51:52;;;;;;;12.93;2.20;;;;;;;17.34;57.90;99507.13;10454848;28;20271;-60
2024/02/24 08:56:52;;;;;;;10.65;2.20;;;;;;;17.28;58.14;99511.03;10457149;28;20036;-59
2024/02/24 09:01:53;;;;;;;6.67;1.93;;;;;;;17.25;59.54;99512.47;10454876;28;20033;-57
2024/02/24 09:06:54;;;;;;;16.02;2.00;;;;;;;17.20;58.76;99511.84;10455774;28;20320;-57
2024/02/24 09:11:54;;;;;;;8.37;1.50;;;;;;;17.12;57.29;99526.81;10455069;28;20037;-58
2024/02/24 09:16:57;;;;;;;13.37;1.73;;;;;;;17.09;58.45;99518.63;10455230;28;20295;-57
2024/02/24 09:21:58;;;;;;;18.70;2.42;;;;;;;17.10;57.43;99561.16;10454628;28;20294;-59
2024/02/24 09:26:59;;;;;;;11.88;2.35;;;;;;;17.04;58.34;99553.56;10452313;28;20048;-58
2024/02/24 09:31:59;;;;;;;14.73;2.20;;;;;;;17.12;57.66;99566.97;10454077;28;20032;-58
2024/02/24 09:37:05;;;;;;;7.90;2.17;;;;;;;17.13;56.74;99568.56;10453628;28;20021;-58
2024/02/24 09:42:09;;;;;;;8.82;2.17;;;;;;;17.14;57.51;99580.06;10453812;28;20282;-58
2024/02/24 09:47:09;;;;;;;6.05;1.42;;;;;;;17.14;56.54;99580.84;10453097;28;20021;-60
2024/02/24 09:52:10;;;;;;;8.10;1.52;;;;;;;17.11;56.14;99586.03;10452552;28;20515;-58
2024/02/24 09:57:13;;;;;;;7.18;1.48;;;;;;;17.15;56.87;99587.78;10454187;28;20025;-58
2024/02/24 10:02:14;;;;;;;6.30;1.48;;;;;;;17.18;56.46;99595.22;10452527;28;20059;-58
2024/02/24 10:07:14;;;;;;;6.93;1.25;;;;;;;17.17;55.96;99592.84;10453082;28;20702;-58
2024/02/24 10:12:15;;;;;;;6.70;1.10;;;;;;;17.19;55.93;99606.72;10453178;28;20052;-58
2024/02/24 10:17:15;;;;;;;4.73;0.70;;;;;;;17.20;55.75;99608.28;10452450;28;20291;-58
2024/02/24 10:22:19;;;;;;;2.92;1.05;;;;;;;17.17;57.22;99612.38;10452937;28;20321;-58
2024/02/24 10:27:20;;;;;;;7.60;1.50;;;;;;;17.17;56.44;99615.06;10452354;28;20025;-58
2024/02/24 10:32:21;;;;;;;3.83;0.75;;;;;;;17.17;56.85;99633.81;10452509;28;20460;-58
2024/02/24 10:37:22;;;;;;;3.03;0.80;;;;;;;17.17;55.78;99628.47;10450377;28;20032;-58
2024/02/24 10:42:26;;;;;;;4.30;0.80;;;;;;;17.17;55.11;99647.22;10451041;28;20107;-58
2024/02/24 10:47:26;;;;;;;2.38;0.63;;;;;;;17.20;55.53;99643.91;10441976;28;20021;-58
2024/02/24 10:52:26;;;;;;;8.43;1.23;;;;;;;17.10;55.28;99648.75;10424687;28;20558;-60
2024/02/24 10:57:27;;;;;;;11.93;2.00;;;;;;;17.06;55.83;99650.47;10427173;28;20508;-68
2024/02/24 11:02:29;;;;;;;6.97;1.75;;;;;;;17.08;55.60;99651.75;10448264;28;20290;-59
2024/02/24 11:07:32;;;;;;;10.48;2.08;;;;;;;17.34;59.24;99659.06;10449593;28;20514;-59
2024/02/24 11:12:32;;;;;;;10.65;1.63;;;;;;;17.56;57.28;99660.81;10443451;28;20055;-58
2024/02/24 11:17:46;;;;;;;8.23;2.25;;;;;;;17.60;57.46;99672.47;10450302;28;20345;-58
2024/02/24 11:22:47;;;;;;;14.65;2.30;;;;;;;17.56;57.65;99674.22;10450571;28;20044;-59
2024/02/24 11:27:55;;;;;;;17.10;2.07;;;;;;;17.51;58.17;99672.47;10442702;28;20023;-60
2024/02/24 11:32:55;;;;;;;7.18;2.75;;;;;;;17.51;57.33;99665.22;10444207;28;20271;-58
2024/02/24 11:37:56;;;;;;;12.73;2.03;;;;;;;17.48;57.80;99675.78;10446254;28;20036;-60
2024/02/24 11:42:56;;;;;;;7.25;1.55;;;;;;;17.38;57.07;99676.06;10448609;28;20302;-60
2024/02/24 11:47:56;;;;;;;19.13;2.92;;;;;;;17.30;58.20;99668.81;10449070;28;20499;-59
2024/02/24 11:52:57;;;;;;;8.80;1.70;;;;;;;17.27;57.89;99672.09;10449240;28;20040;-59
2024/02/24 11:57:57;;;;;;;12.13;2.00;;;;;;;17.24;57.12;99689.59;10443404;28;20025;-59
2024/02/24 12:02:59;;;;;;;8.43;2.67;;;;;;;17.21;58.08;99692.91;10447776;28;20033;-59
2024/02/24 12:08:05;;;;;;;6.30;1.88;;;;;;;17.15;56.58;99692.25;10447933;28;20009;-59
2024/02/24 12:13:08;;;;;;;7.53;1.73;;;;;;;17.13;57.53;99693.66;10446799;28;20491;-59
2024/02/24 12:18:08;;;;;;;11.55;1.88;;;;;;;17.10;57.75;99702.31;10453564;28;20526;-59
2024/02/24 12:23:10;;;;;;;4.43;1.27;;;;;;;17.08;57.90;99697.28;10462410;28;20031;-59
2024/02/24 12:28:11;;;;;;;4.25;1.30;;;;;;;17.02;57.38;99711.09;10460841;28;20103;-59
2024/02/24 12:33:15;;;;;;;4.78;1.55;;;;;;;16.99;56.89;99709.84;10462488;28;20639;-59
2024/02/24 12:38:18;;;;;;;3.95;1.70;;;;;;;16.98;57.47;99712.81;10460359;28;20071;-59
2024/02/24 12:43:19;;;;;;;5.65;1.20;;;;;;;16.98;56.21;99724.31;10461607;28;20023;-59
2024/02/24 12:48:20;;;;;;;5.38;1.10;;;;;;;16.95;57.62;99733.78;10461330;28;20023;-59
2024/02/24 12:53:21;;;;;;;4.45;1.00;;;;;;;16.99;57.17;99731.25;10461720;28;20029;-59
2024/02/24 12:58:23;;;;;;;4.72;1.38;;;;;;;17.02;56.69;99738.66;10460225;28;20112;-59
2024/02/24 13:03:23;;;;;;;2.63;0.90;;;;;;;17.06;56.24;99730.81;10461933;28;20119;-58
2024/02/24 13:08:24;;;;;;;4.43;1.42;;;;;;;17.11;57.04;99733.34;10461280;28;20083;-59
2024/02/24 13:13:24;;;;;;;4.80;1.38;;;;;;;17.09;55.44;99732.88;10461505;28;20045;-59
2024/02/24 13:18:27;;;;;;;2.10;1.17;;;;;;;17.13;55.19;99733.84;10461177;28;20032;-60
2024/02/24 13:23:27;;;;;;;7.82;1.38;;;;;;;17.14;55.80;99735.41;10461767;28;20100;-58
2024/02/24 13:28:27;;;;;;;3.47;1.10;;;;;;;17.15;55.20;99739.66;10457075;28;20025;-59
2024/02/24 13:33:28;;;;;;;3.47;1.10;;;;;;;17.12;56.50;99740.28;10454479;28;20282;-59
2024/02/24 13:38:28;;;;;;;2.73;0.93;;;;;;;17.13;56.53;99745.34;10453976;28;20283;-59
2024/02/24 13:43:28;;;;;;;3.13;1.03;;;;;;;17.16;55.42;99736.69;10453352;28;20279;-60
2024/02/24 13:48:29;;;;;;;3.37;1.00;;;;;;;17.16;55.57;99741.25;10453833;28;20021;-59
2024/02/24 13:53:29;;;;;;;4.18;1.00;;;;;;;17.17;55.81;99743.63;10454118;28;20282;-59
2024/02/24 13:58:30;;;;;;;2.33;0.80;;;;;;;17.17;55.17;99756.25;10453243;28;20063;-59
2024/02/24 14:03:30;;;;;;;3.58;0.70;;;;;;;17.14;55.13;99749.59;10453851;28;20275;-58
2024/02/24 14:08:31;;;;;;;2.10;0.90;;;;;;;17.16;55.71;99762.66;10453015;28;20099;-58
2024/02/24 14:13:32;;;;;;;1.40;0.55;;;;;;;17.14;55.58;99760.31;10453042;28;20420;-59
2024/02/24 14:18:32;;;;;;;1.73;0.77;;;;;;;17.11;55.32;99768.19;10452615;28;20025;-59
2024/02/24 14:23:32;;;;;;;2.57;0.67;;;;;;;17.10;55.63;99775.41;10452888;28;20029;-59
2024/02/24 14:28:33;;;;;;;4.10;0.70;;;;;;;17.14;56.21;99781.72;10452556;28;20717;-59
2024/02/24 14:33:33;;;;;;;1.55;0.65;;;;;;;17.17;55.70;99791.06;10452317;28;20337;-58
2024/02/24 14:38:34;;;;;;;0.82;0.68;;;;;;;17.19;55.85;99792.34;10451643;28;20025;-59
2024/02/24 14:43:34;;;;;;;1.95;0.82;;;;;;;17.19;55.62;99805.72;10451339;28;20085;-59
2024/02/24 14:48:35;;;;;;;1.92;0.60;;;;;;;17.23;54.50;99797.84;10450370;28;20033;-59
2024/02/24 14:53:35;;;;;;;0.98;0.40;;;;;;;17.21;55.29;99795.50;10451808;28;20448;-59
2024/02/24 14:58:37;;;;;;;1.77;0.70;;;;;;;17.22;54.05;99793.59;10451197;28;20029;-59
2024/02/24 15:03:39;;;;;;;3.40;1.65;;;;;;;17.21;54.60;99786.66;10451173;28;20078;-59
2024/02/24 15:08:39;;;;;;;1.23;0.47;;;;;;;17.17;54.37;99802.56;10450524;28;20025;-58
2024/02/24 15:13:40;;;;;;;0.73;0.50;;;;;;;17.19;54.74;99802.25;10451260;28;20052;-59
2024/02/24 15:18:41;;;;;;;1.25;0.60;;;;;;;17.20;54.55;99803.84;10449945;28;20294;-58
2024/02/24 15:23:41;;;;;;;2.08;0.70;;;;;;;17.19;53.89;99805.72;10449130;28;20025;-59
2024/02/24 15:28:41;;;;;;;1.37;0.50;;;;;;;17.16;54.56;99794.81;10450026;28;20021;-60
2024/02/24 15:33:41;;;;;;;3.77;1.33;;;;;;;17.12;55.69;99801.91;10450353;28;20283;-59
2024/02/24 15:38:42;;;;;;;1.17;0.60;;;;;;;17.07;54.52;99818.09;10449321;28;20025;-59
2024/02/24 15:43:42;;;;;;;1.10;0.40;;;;;;;17.02;55.90;99815.53;10443773;28;20287;-59
2024/02/24 15:48:43;;;;;;;2.40;0.65;;;;;;;17.06;55.15;99827.25;10442362;28;20029;-59
2024/02/24 15:53:43;;;;;;;0.75;0.43;;;;;;;17.09;55.56;99831.97;10448194;28;20032;-59
2024/02/24 15:58:44;;;;;;;0.63;0.33;;;;;;;17.08;55.89;99831.19;10448739;28;20491;-60
2024/02/24 16:03:45;;;;;;;1.38;0.60;;;;;;;17.11;55.52;99829.78;10448589;28;20767;-59
2024/02/24 16:08:45;;;;;;;2.00;0.70;;;;;;;17.11;54.36;99843.16;10449300;28;20120;-59
2024/02/24 16:13:46;;;;;;;1.55;0.50;;;;;;;17.13;54.52;99840.97;10449315;28;20049;-59
2024/02/24 16:18:46;;;;;;;0.80;0.50;;;;;;;17.15;54.95;99844.13;10448677;28;20111;-60
2024/02/24 16:23:46;;;;;;;1.23;0.55;;;;;;;17.15;53.91;99844.13;10448859;28;20036;-60
2024/02/24 16:28:48;;;;;;;1.73;0.60;;;;;;;17.19;54.31;99853.16;10448414;28;20017;-59
2024/02/24 16:33:52;;;;;;;1.30;0.30;;;;;;;17.22;54.66;99849.84;10443588;28;20314;-59
2024/02/24 16:38:55;;;;;;;1.45;0.60;;;;;;;17.20;54.68;99850.16;10442627;28;20025;-59
2024/02/24 16:43:55;;;;;;;1.35;0.60;;;;;;;17.18;55.33;99851.56;10446807;28;20059;-59
2024/02/24 16:48:55;;;;;;;0.90;0.43;;;;;;;17.09;55.55;99851.53;10442633;28;20044;-66
2024/02/24 16:53:56;;;;;;;9.80;1.43;;;;;;;17.28;54.32;99863.91;10449142;28;20639;-60
2024/02/24 16:58:56;;;;;;;11.93;1.57;;;;;;;17.40;54.96;99872.16;10449025;28;20295;-57
2024/02/24 17:03:57;;;;;;;18.23;2.37;;;;;;;17.46;54.65;99863.69;10450984;28;20658;-60
2024/02/24 17:08:58;;;;;;;14.40;2.13;;;;;;;17.40;54.51;99880.19;10456552;28;20346;-59
2024/02/24 17:13:58;;;;;;;9.77;1.75;;;;;;;17.36;55.03;99871.19;10456470;28;20053;-57
2024/02/24 17:18:58;;;;;;;13.45;1.88;;;;;;;17.40;56.71;99872.16;10456078;28;20025;-56
2024/02/24 17:23:59;;;;;;;16.47;1.90;;;;;;;17.37;55.44;99876.25;10456856;28;20029;-58
2024/02/24 17:28:59;;;;;;;20.83;2.67;;;;;;;17.39;56.99;99882.09;10454725;28;20514;-60
2024/02/24 17:33:59;;;;;;;10.63;2.03;;;;;;;17.38;57.12;99885.06;10438004;28;20283;-59
2024/02/24 17:38:59;;;;;;;9.43;1.57;;;;;;;17.39;56.44;99892.81;10455388;28;20295;-61
2024/02/24 17:44:00;;;;;;;22.33;2.33;;;;;;;17.36;56.92;99892.63;10454401;28;20271;-58
2024/02/24 17:49:00;;;;;;;15.93;3.15;;;;;;;17.36;55.80;99900.69;10455104;28;20271;-59
2024/02/24 17:54:01;;;;;;;14.63;2.23;;;;;;;17.37;57.50;99902.25;10455537;28;20032;-57
2024/02/24 17:59:01;;;;;;;20.30;2.47;;;;;;;17.36;56.28;99903.34;10454461;28;20291;-58
2024/02/24 18:04:02;;;;;;;12.13;2.77;;;;;;;17.36;56.65;99906.03;10454926;28;20078;-58
2024/02/24 18:09:03;;;;;;;12.45;2.20;;;;;;;17.33;56.88;99906.66;10452698;28;20275;-60
2024/02/24 18:14:03;;;;;;;8.47;1.93;;;;;;;17.24;57.16;99906.59;10454062;28;20447;-61
2024/02/24 18:19:06;;;;;;;19.45;2.88;;;;;;;17.16;55.95;99918.03;10452504;28;20287;-58
2024/02/24 18:24:06;;;;;;;13.70;2.00;;;;;;;17.12;56.90;99915.19;10453970;28;20030;-59
2024/02/24 18:29:07;;;;;;;9.77;1.60;;;;;;;17.09;55.73;99915.81;10453632;28;20025;-58
2024/02/24 18:34:07;;;;;;;5.93;1.95;;;;;;;17.08;55.81;99921.47;10445206;28;20291;-59
2024/02/24 18:39:08;;;;;;;7.68;1.30;;;;;;;17.12;55.98;99925.91;10452975;28;20029;-60
2024/02/24 18:44:08;;;;;;;4.43;1.50;;;;;;;17.16;56.58;99926.06;10453538;28;20032;-59
2024/02/24 18:49:09;;;;;;;6.33;1.57;;;;;;;17.18;54.90;99926.59;10447915;28;20017;-59
2024/02/24 18:54:09;;;;;;;8.83;1.97;;;;;;;17.19;54.82;99931.63;10445605;28;20326;-59
2024/02/24 18:59:09;;;;;;;10.63;1.53;;;;;;;17.21;55.12;99928.66;10447568;28;20782;-60
2024/02/24 19:04:11;;;;;;;4.03;1.10;;;;;;;17.25;55.02;99929.59;10449041;28;20279;-59
2024/02/24 19:09:11;;;;;;;8.00;1.88;;;;;;;17.35;55.16;99928.56;10451029;28;20792;-59
2024/02/24 19:14:13;;;;;;;3.07;1.53;;;;;;;17.38;54.96;99925.28;10448912;28;20060;-59
2024/02/24 19:19:14;;;;;;;5.63;1.30;;;;;;;17.37;55.26;99915.66;10447883;28;20291;-60
2024/02/24 19:24:14;;;;;;;5.00;1.55;;;;;;;17.38;54.77;99918.03;10448966;28;20352;-59
2024/02/24 19:29:16;;;;;;;4.57;1.00;;;;;;;17.37;54.89;99923.69;10449890;28;20033;-59
2024/02/24 19:34:19;;;;;;;5.38;1.45;;;;;;;17.36;54.78;99922.13;10450350;28;20359;-57
2024/02/24 19:39:20;;;;;;;5.45;1.35;;;;;;;17.38;55.04;99933.31;10450639;28;20021;-58
2024/02/24 19:44:21;;;;;;;4.68;1.10;;;;;;;17.37;55.02;99927.16;10450222;28;20681;-59
2024/02/24 19:49:21;;;;;;;2.63;1.00;;;;;;;17.38;54.58;99930.63;10450103;28;20029;-59
2024/02/24 19:54:22;;;;;;;8.13;1.67;;;;;;;17.30;55.58;99929.50;10449851;28;20106;-58
2024/02/24 19:59:22;;;;;;;4.13;1.20;;;;;;;17.30;54.85;99936.75;10449746;28;20282;-59
2024/02/24 20:04:22;;;;;;;5.50;1.60;;;;;;;17.30;54.97;99923.34;10450132;28;20059;-58
2024/02/24 20:09:23;;;;;;;3.70;1.00;;;;;;;17.28;55.39;99928.19;10449762;28;20669;-58
2024/02/24 20:14:23;;;;;;;4.10;1.13;;;;;;;17.27;55.30;99927.41;10448549;28;20341;-58
2024/02/24 20:19:23;;;;;;;4.20;1.48;;;;;;;17.29;53.79;99935.16;10449092;28;20686;-57
2024/02/24 20:24:24;;;;;;;4.43;2.13;;;;;;;17.30;54.07;99937.53;10448856;28;20033;-57
2024/02/24 20:29:24;;;;;;;4.40;1.50;;;;;;;17.29;54.28;99941.31;10449100;28;20029;-58
2024/02/24 20:34:25;;;;;;;3.83;1.13;;;;;;;17.28;54.22;99936.25;10448616;28;20024;-58
2024/02/24 20:39:25;;;;;;;4.93;1.00;;;;;;;17.29;54.76;99937.84;10452767;28;20036;-59
2024/02/24 20:44:25;;;;;;;3.17;1.00;;;;;;;17.29;54.28;99930.59;10432326;28;20112;-58
2024/02/24 20:49:27;;;;;;;3.03;1.23;;;;;;;17.28;54.25;99938.91;10457082;28;20035;-58
2024/02/24 20:54:31;;;;;;;2.08;1.08;;;;;;;17.29;53.81;99938.63;10454595;28;20045;-58
2024/02/24 20:59:31;;;;;;;2.50;1.10;;;;;;;17.29;53.56;99937.84;10443850;28;20102;-58
2024/02/24 21:04:32;;;;;;;3.47;1.27;;;;;;;17.28;53.66;99942.38;10456927;28;20102;-58
2024/02/24 21:09:32;;;;;;;2.75;1.52;;;;;;;17.30;54.50;99934.84;10457013;28;20528;-58
2024/02/24 21:14:32;;;;;;;2.40;1.13;;;;;;;17.32;54.12;99935.34;10456445;28;20040;-58
2024/02/24 21:19:33;;;;;;;2.47;1.10;;;;;;;17.30;53.86;99928.72;10456571;28;20046;-57
2024/02/24 21:24:33;;;;;;;2.08;0.93;;;;;;;17.31;53.23;99916.91;10455881;28;20286;-57
2024/02/24 21:29:34;;;;;;;2.13;1.10;;;;;;;17.32;53.71;99916.59;10456330;28;20475;-58
2024/02/24 21:34:36;;;;;;;2.70;0.80;;;;;;;17.29;54.04;99906.50;10455759;28;20302;-57
2024/02/24 21:39:37;;;;;;;4.00;1.35;;;;;;;17.31;54.02;99908.84;10449692;28;20472;-58
2024/02/24 21:44:38;;;;;;;2.35;0.90;;;;;;;17.30;55.11;99896.56;10455126;28;20033;-58
2024/02/24 21:49:38;;;;;;;3.47;1.35;;;;;;;17.30;54.04;99889.31;10446979;28;20037;-58
2024/02/24 21:54:38;;;;;;;1.73;0.80;;;;;;;17.33;54.16;99877.19;10453667;28;20113;-58
2024/02/24 21:59:39;;;;;;;1.37;0.80;;;;;;;17.30;54.56;99883.94;10455170;28;20040;-58
2024/02/24 22:04:39;;;;;;;3.20;1.20;;;;;;;17.32;53.35;99887.13;10454673;28;20286;-58
2024/02/24 22:09:39;;;;;;;2.70;0.90;;;;;;;17.32;54.91;99876.38;10454402;28;20332;-59
2024/02/24 22:14:39;;;;;;;2.80;0.80;;;;;;;17.30;54.23;99883.16;10453876;28;20033;-58
2024/02/24 22:19:40;;;;;;;2.60;1.00;;;;;;;17.29;54.35;99874.34;10454158;28;20071;-58
2024/02/24 22:24:40;;;;;;;2.03;0.90;;;;;;;17.30;53.17;99875.13;10453949;28;20275;-59
2024/02/24 22:29:42;;;;;;;3.00;1.00;;;;;;;17.33;54.34;99866.47;10448327;28;20294;-58
2024/02/24 22:34:42;;;;;;;2.25;1.10;;;;;;;17.35;53.69;99867.72;10452962;28;20634;-58
2024/02/24 22:39:42;;;;;;;3.07;1.43;;;;;;;17.36;53.70;99865.84;10448541;28;20033;-59
2024/02/24 22:44:43;;;;;;;2.23;1.00;;;;;;;17.38;53.18;99867.09;10450997;28;20750;-58
2024/02/24 22:49:43;;;;;;;2.30;0.93;;;;;;;17.39;54.37;99857.97;10452938;28;20275;-58
2024/02/24 22:54:44;;;;;;;0.93;0.60;;;;;;;17.41;53.49;99858.47;10452390;28;20017;-58
2024/02/24 22:59:44;;;;;;;2.95;1.02;;;;;;;17.40;53.87;99856.88;10452775;28;20351;-58
2024/02/24 23:04:45;;;;;;;1.67;0.67;;;;;;;17.42;53.23;99852.00;10451193;28;20029;-58
2024/02/24 23:09:45;;;;;;;2.80;0.98;;;;;;;17.42;52.77;99848.53;10450629;28;20299;-58
2024/02/24 23:14:45;;;;;;;2.03;0.68;;;;;;;17.44;54.40;99857.06;10451617;28;20460;-58